Time;durP1;ratioP1;P1;durP2;ratioP2;P2;SDS_P1;SDS_P2;PMS_P1;PMS_P2;Temp;Humidity;BMP_temperature;BMP_pressure;BME280_temperature;BME280_humidity;BME280_pressure;Samples;Min_cycle;Max_cycle;Signal;HPM_P1;HPM_P2
2021/07/15 00:01:32;;;;;;;1.10;1.00;;;13.80;99.90;;;;;;5080160;28;20192;-83
2021/07/15 00:03:58;;;;;;;1.07;0.83;;;13.80;99.90;;;;;;5080865;28;20169;-83
2021/07/15 00:06:23;;;;;;;1.33;1.03;;;13.80;99.90;;;;;;5080173;28;20175;-83
2021/07/15 00:08:54;;;;;;;1.17;0.83;;;13.80;99.90;;;;;;5078847;28;20184;-82
2021/07/15 00:11:24;;;;;;;1.00;0.90;;;13.80;99.90;;;;;;5078845;28;20188;-83
2021/07/15 00:13:50;;;;;;;0.80;0.73;;;13.90;99.90;;;;;;5080525;28;20207;-83
2021/07/15 00:16:16;;;;;;;0.90;0.70;;;13.90;99.90;;;;;;5080597;28;20169;-83
2021/07/15 00:18:45;;;;;;;0.70;0.70;;;13.90;99.90;;;;;;5078095;28;20228;-83
2021/07/15 00:21:12;;;;;;;0.80;0.80;;;13.80;99.90;;;;;;5080634;28;20199;-82
2021/07/15 00:23:39;;;;;;;0.90;0.90;;;13.80;99.90;;;;;;5078748;28;20172;-82
2021/07/15 00:26:07;;;;;;;0.80;0.80;;;13.80;99.90;;;;;;5084868;28;20199;-82
2021/07/15 00:28:39;;;;;;;2.50;1.00;;;13.80;99.90;;;;;;5083399;28;20598;-82
2021/07/15 00:31:07;;;;;;;0.80;0.80;;;13.80;99.90;;;;;;5082144;28;20197;-83
2021/07/15 00:33:33;;;;;;;1.47;1.00;;;13.70;99.90;;;;;;5082470;28;20169;-83
2021/07/15 00:35:59;;;;;;;1.03;1.00;;;13.70;99.90;;;;;;5082333;28;20175;-83
2021/07/15 00:38:26;;;;;;;1.00;0.80;;;13.70;99.90;;;;;;5082980;28;20169;-83
2021/07/15 00:40:52;;;;;;;1.47;1.07;;;13.60;99.90;;;;;;5081949;28;20219;-83
2021/07/15 00:43:18;;;;;;;2.10;0.90;;;13.60;99.90;;;;;;5081998;28;20180;-82
2021/07/15 00:45:43;;;;;;;3.23;0.97;;;13.60;99.90;;;;;;5083662;28;20169;-83
2021/07/15 00:48:10;;;;;;;1.43;0.90;;;13.60;99.90;;;;;;5083671;28;20161;-83
2021/07/15 00:50:36;;;;;;;1.67;0.90;;;13.60;99.90;;;;;;5081954;28;20673;-83
2021/07/15 00:53:03;;;;;;;0.90;0.70;;;13.60;99.90;;;;;;5081541;28;20184;-82
2021/07/15 00:55:34;;;;;;;0.93;0.77;;;13.60;99.90;;;;;;5081913;28;20193;-82
2021/07/15 00:58:01;;;;;;;1.47;1.00;;;13.60;99.90;;;;;;5082437;28;20534;-84
2021/07/15 01:00:27;;;;;;;1.00;0.63;;;13.60;99.90;;;;;;5080583;28;20254;-83
2021/07/15 01:02:54;;;;;;;1.10;0.70;;;13.60;99.90;;;;;;5081010;28;20226;-83
2021/07/15 01:05:21;;;;;;;1.00;0.70;;;13.60;99.90;;;;;;5082483;28;20165;-83
2021/07/15 01:07:47;;;;;;;0.50;0.50;;;13.60;99.90;;;;;;5081883;28;20165;-83
2021/07/15 01:10:23;;;;;;;0.30;0.30;;;13.50;99.90;;;;;;5079878;28;20580;-83
2021/07/15 01:13:14;;;;;;;1.00;0.50;;;13.50;99.90;;;;;;5079854;28;20204;-83
2021/07/15 01:15:48;;;;;;;0.50;0.50;;;13.50;99.90;;;;;;5079200;28;20183;-84
2021/07/15 01:18:36;;;;;;;0.43;0.40;;;13.50;99.90;;;;;;5077844;28;20178;-84
2021/07/15 01:21:45;;;;;;;0.40;0.40;;;13.50;99.90;;;;;;5078016;28;20580;-83
2021/07/15 01:24:14;;;;;;;2.50;0.40;;;13.40;99.90;;;;;;5077713;28;20177;-83
2021/07/15 01:27:17;;;;;;;2.10;0.40;;;13.40;99.90;;;;;;5077180;28;20181;-83
2021/07/15 01:30:03;;;;;;;0.70;0.47;;;13.50;99.90;;;;;;5077294;28;20197;-85
2021/07/15 01:32:51;;;;;;;1.73;0.40;;;13.50;99.90;;;;;;5079909;28;20236;-83
2021/07/15 01:35:20;;;;;;;0.50;0.50;;;13.40;99.90;;;;;;5085141;28;20170;-84
2021/07/15 01:37:50;;;;;;;0.50;0.50;;;13.50;99.90;;;;;;5081530;28;20176;-83
2021/07/15 01:40:20;;;;;;;0.53;0.50;;;13.40;99.90;;;;;;5080650;28;20269;-83
2021/07/15 01:42:50;;;;;;;0.40;0.40;;;13.50;99.90;;;;;;5080408;28;20243;-83
2021/07/15 01:45:16;;;;;;;1.23;0.60;;;13.50;99.90;;;;;;5078602;28;20180;-84
2021/07/15 01:47:44;;;;;;;1.47;0.50;;;13.50;99.90;;;;;;5079422;28;20172;-84
2021/07/15 01:50:10;;;;;;;1.53;0.53;;;13.50;99.90;;;;;;5078331;28;20544;-83
2021/07/15 01:52:36;;;;;;;0.40;0.40;;;13.50;99.90;;;;;;5078456;28;20176;-84
2021/07/15 01:55:04;;;;;;;0.43;0.40;;;13.50;99.90;;;;;;5078905;28;20178;-83
2021/07/15 01:57:30;;;;;;;0.60;0.40;;;13.50;99.90;;;;;;5079347;28;20183;-84
2021/07/15 01:59:57;;;;;;;1.13;0.80;;;13.50;99.90;;;;;;5081713;28;20203;-83
2021/07/15 02:02:25;;;;;;;0.40;0.40;;;13.50;99.90;;;;;;5083267;28;20266;-83
2021/07/15 02:04:54;;;;;;;1.10;1.00;;;13.50;99.90;;;;;;5079903;28;20649;-84
2021/07/15 02:07:22;;;;;;;0.50;0.50;;;13.50;99.90;;;;;;5080261;28;20169;-84
2021/07/15 02:09:50;;;;;;;0.60;0.47;;;13.40;99.90;;;;;;5080341;28;20639;-84
2021/07/15 02:12:18;;;;;;;1.07;0.70;;;13.40;99.90;;;;;;5080252;28;20176;-84
2021/07/15 02:14:46;;;;;;;1.17;0.50;;;13.40;99.90;;;;;;5079607;28;20211;-84
2021/07/15 02:17:12;;;;;;;0.80;0.63;;;13.40;99.90;;;;;;5079352;28;20176;-83
2021/07/15 02:19:40;;;;;;;1.80;0.50;;;13.40;99.90;;;;;;5079266;28;20295;-84
2021/07/15 02:22:06;;;;;;;0.50;0.50;;;13.40;99.90;;;;;;5078577;28;20205;-84
2021/07/15 02:24:33;;;;;;;0.70;0.63;;;13.40;99.90;;;;;;5080223;28;20349;-83
2021/07/15 02:27:03;;;;;;;0.93;0.53;;;13.40;99.90;;;;;;5079067;28;20519;-84
2021/07/15 02:29:29;;;;;;;0.60;0.60;;;13.40;99.90;;;;;;5080487;28;20196;-84
2021/07/15 02:32:03;;;;;;;0.50;0.50;;;13.40;99.90;;;;;;5080654;28;20198;-84
2021/07/15 02:34:52;;;;;;;0.50;0.50;;;13.40;99.90;;;;;;5079138;28;20176;-83
2021/07/15 02:37:22;;;;;;;0.73;0.50;;;13.40;99.90;;;;;;5078836;28;20187;-84
2021/07/15 02:39:48;;;;;;;0.40;0.40;;;13.30;99.90;;;;;;5078326;28;20223;-84
2021/07/15 02:42:14;;;;;;;1.03;0.33;;;13.30;99.90;;;;;;5078602;28;20643;-84
2021/07/15 02:44:42;;;;;;;0.37;0.37;;;13.30;99.90;;;;;;5080219;28;20169;-83
2021/07/15 02:47:09;;;;;;;0.50;0.50;;;13.30;99.90;;;;;;5080222;28;20165;-83
2021/07/15 02:49:37;;;;;;;0.40;0.40;;;13.20;99.90;;;;;;5078850;28;20179;-83
2021/07/15 02:52:03;;;;;;;0.60;0.53;;;13.20;99.90;;;;;;5080142;28;20267;-84
2021/07/15 02:54:29;;;;;;;0.40;0.40;;;13.20;99.90;;;;;;5079895;28;20580;-83
2021/07/15 02:57:10;;;;;;;0.50;0.50;;;13.10;99.90;;;;;;5078627;28;20634;-83
2021/07/15 03:00:00;;;;;;;0.40;0.40;;;13.10;99.90;;;;;;5078678;28;20200;-83
2021/07/15 03:02:31;;;;;;;1.27;0.50;;;13.10;99.90;;;;;;5075183;28;20177;-84
2021/07/15 03:05:02;;;;;;;1.17;0.40;;;13.10;99.90;;;;;;5078399;28;20192;-84
2021/07/15 03:07:42;;;;;;;1.87;0.50;;;13.10;99.90;;;;;;5078228;28;20161;-84
2021/07/15 03:10:09;;;;;;;0.40;0.40;;;13.10;99.90;;;;;;5077717;28;20292;-84
2021/07/15 03:12:39;;;;;;;0.87;0.50;;;13.00;99.90;;;;;;5078858;28;20173;-84
2021/07/15 03:15:06;;;;;;;0.83;0.40;;;13.00;99.90;;;;;;5079703;28;20172;-84
2021/07/15 03:17:34;;;;;;;1.27;0.50;;;12.90;99.90;;;;;;5078637;28;20177;-84
2021/07/15 03:20:25;;;;;;;0.70;0.50;;;12.90;99.90;;;;;;5078698;28;20247;-84
2021/07/15 03:22:55;;;;;;;0.90;0.50;;;12.80;99.90;;;;;;5078599;28;20264;-85
2021/07/15 03:25:22;;;;;;;0.40;0.40;;;12.60;99.90;;;;;;5077919;28;20185;-84
2021/07/15 03:27:51;;;;;;;0.90;0.60;;;12.60;99.90;;;;;;5077290;28;20185;-85
2021/07/15 03:30:17;;;;;;;0.40;0.40;;;12.60;99.90;;;;;;5077073;28;20199;-85
2021/07/15 03:32:48;;;;;;;0.50;0.50;;;12.60;99.90;;;;;;5077802;28;20172;-85
2021/07/15 03:35:15;;;;;;;0.70;0.60;;;12.50;99.90;;;;;;5075520;28;20174;-85
2021/07/15 03:37:44;;;;;;;1.33;0.80;;;12.50;99.90;;;;;;5074536;28;20179;-85
2021/07/15 03:40:12;;;;;;;0.93;0.67;;;12.50;99.90;;;;;;5073633;28;20606;-86
2021/07/15 03:42:39;;;;;;;0.60;0.60;;;12.50;99.90;;;;;;5074706;28;20663;-86
2021/07/15 03:45:06;;;;;;;1.10;0.70;;;12.50;99.90;;;;;;5074973;28;20180;-85
2021/07/15 03:47:32;;;;;;;0.70;0.70;;;12.50;99.90;;;;;;5075138;28;20169;-85
2021/07/15 03:49:59;;;;;;;3.73;0.70;;;12.50;99.90;;;;;;5075849;28;20179;-85
2021/07/15 03:52:25;;;;;;;0.70;0.60;;;12.50;99.90;;;;;;5074438;28;20234;-85
2021/07/15 03:54:51;;;;;;;1.43;0.70;;;12.50;99.90;;;;;;5075398;28;20173;-85
2021/07/15 03:57:19;;;;;;;0.80;0.80;;;12.50;99.90;;;;;;5073532;28;20266;-85
2021/07/15 03:59:51;;;;;;;0.70;0.67;;;12.60;99.90;;;;;;5078896;28;20206;-85
2021/07/15 04:02:25;;;;;;;0.90;0.80;;;12.60;99.90;;;;;;5081741;28;20156;-85
2021/07/15 04:04:55;;;;;;;1.50;0.90;;;12.60;99.90;;;;;;5083396;28;20214;-85
2021/07/15 04:07:23;;;;;;;2.10;0.80;;;12.60;99.90;;;;;;5092457;28;20221;-85
2021/07/15 04:09:50;;;;;;;2.37;1.07;;;12.60;99.90;;;;;;5082960;28;20193;-85
2021/07/15 04:12:20;;;;;;;2.00;0.87;;;12.50;99.90;;;;;;5084753;28;20187;-85
2021/07/15 04:15:06;;;;;;;1.70;1.10;;;12.50;99.90;;;;;;5089043;28;20281;-85
2021/07/15 04:17:55;;;;;;;1.37;1.10;;;12.50;99.90;;;;;;5081260;28;20227;-85
2021/07/15 04:20:23;;;;;;;1.10;1.00;;;12.50;99.90;;;;;;5084030;28;20215;-86
2021/07/15 04:22:51;;;;;;;4.77;1.30;;;12.60;99.90;;;;;;5083582;28;20173;-85
2021/07/15 04:25:20;;;;;;;3.00;1.10;;;12.60;99.90;;;;;;5082564;28;20183;-85
2021/07/15 04:27:49;;;;;;;1.30;1.13;;;12.60;99.90;;;;;;5083972;28;20181;-85
2021/07/15 04:30:16;;;;;;;2.20;1.27;;;12.60;99.90;;;;;;5082794;28;20219;-85
2021/07/15 04:32:50;;;;;;;1.00;0.90;;;12.70;99.90;;;;;;5082526;28;20191;-85
2021/07/15 04:35:16;;;;;;;1.10;1.00;;;12.70;99.90;;;;;;5081591;28;20165;-85
2021/07/15 04:37:43;;;;;;;1.67;0.83;;;12.70;99.90;;;;;;5081164;28;20635;-85
2021/07/15 04:40:12;;;;;;;1.80;1.43;;;12.70;99.90;;;;;;5080417;28;20234;-86
2021/07/15 04:42:39;;;;;;;1.60;1.07;;;12.70;99.90;;;;;;5081289;28;20176;-86
2021/07/15 04:45:08;;;;;;;1.10;1.00;;;12.70;99.90;;;;;;5082857;28;20606;-86
2021/07/15 04:47:36;;;;;;;2.00;1.00;;;12.80;99.90;;;;;;5082832;28;20185;-86
2021/07/15 04:50:02;;;;;;;2.17;1.10;;;12.80;99.90;;;;;;5084229;28;20176;-85
2021/07/15 04:52:28;;;;;;;2.50;1.20;;;12.80;99.90;;;;;;5081448;28;20187;-85
2021/07/15 04:54:55;;;;;;;1.40;1.00;;;12.90;99.90;;;;;;5085549;28;20180;-85
2021/07/15 04:57:22;;;;;;;1.70;1.10;;;12.90;99.90;;;;;;5084007;28;20179;-85
2021/07/15 04:59:48;;;;;;;1.20;1.10;;;12.90;99.90;;;;;;5085323;28;20723;-85
2021/07/15 05:02:14;;;;;;;2.67;1.30;;;12.90;99.90;;;;;;5084448;28;20175;-85
2021/07/15 05:04:40;;;;;;;1.17;0.90;;;12.90;99.90;;;;;;5083518;28;20186;-85
2021/07/15 05:07:06;;;;;;;1.03;0.93;;;12.90;99.90;;;;;;5083372;28;20177;-85
2021/07/15 05:09:32;;;;;;;2.97;1.10;;;12.90;99.90;;;;;;5083179;28;20203;-85
2021/07/15 05:11:57;;;;;;;1.07;0.97;;;12.90;99.90;;;;;;5078435;28;20263;-85
2021/07/15 05:14:23;;;;;;;2.37;1.10;;;13.00;99.90;;;;;;5079409;28;20544;-86
2021/07/15 05:16:49;;;;;;;1.70;0.93;;;13.00;99.90;;;;;;5078728;28;20184;-85
2021/07/15 05:19:14;;;;;;;1.60;1.03;;;12.90;99.90;;;;;;5079746;28;20561;-86
2021/07/15 05:21:40;;;;;;;1.03;0.97;;;12.90;99.90;;;;;;5078222;28;20207;-84
2021/07/15 05:24:06;;;;;;;1.13;1.00;;;12.90;99.90;;;;;;5078391;28;20270;-85
2021/07/15 05:26:32;;;;;;;3.77;1.23;;;12.90;99.90;;;;;;5078397;28;20203;-86
2021/07/15 05:28:58;;;;;;;1.20;1.00;;;12.90;99.90;;;;;;5080059;28;20708;-85
2021/07/15 05:31:24;;;;;;;2.13;1.20;;;12.90;99.90;;;;;;5078861;28;20222;-85
2021/07/15 05:33:50;;;;;;;1.80;1.40;;;12.90;99.90;;;;;;5078536;28;20173;-85
2021/07/15 05:36:15;;;;;;;1.47;1.20;;;12.90;99.90;;;;;;5078311;28;20665;-86
2021/07/15 05:38:42;;;;;;;1.30;1.20;;;13.00;99.90;;;;;;5078797;28;20164;-86
2021/07/15 05:41:11;;;;;;;1.87;1.37;;;13.00;99.90;;;;;;5078220;28;20196;-85
2021/07/15 05:43:37;;;;;;;2.23;1.30;;;13.00;99.90;;;;;;5078929;28;20195;-85
2021/07/15 05:46:03;;;;;;;2.90;1.40;;;13.00;99.90;;;;;;5078596;28;20240;-85
2021/07/15 05:48:29;;;;;;;2.20;1.60;;;13.10;99.90;;;;;;5080829;28;20236;-85
2021/07/15 05:50:55;;;;;;;1.50;1.30;;;13.10;99.90;;;;;;5079342;28;20197;-85
2021/07/15 05:53:21;;;;;;;2.10;1.57;;;13.20;99.90;;;;;;5080236;28;20187;-85
2021/07/15 05:55:46;;;;;;;1.73;1.63;;;13.10;99.90;;;;;;5080538;28;20176;-85
2021/07/15 05:58:12;;;;;;;2.90;1.60;;;13.20;99.90;;;;;;5078665;28;20187;-85
2021/07/15 06:00:38;;;;;;;2.07;1.30;;;13.20;99.90;;;;;;5078142;28;20215;-86
2021/07/15 06:03:03;;;;;;;4.13;1.53;;;13.20;99.90;;;;;;5077654;28;20601;-85
2021/07/15 06:05:30;;;;;;;3.87;1.40;;;13.10;99.90;;;;;;5077761;28;20176;-85
2021/07/15 06:07:58;;;;;;;2.20;1.37;;;13.10;99.90;;;;;;5078032;28;20192;-85
2021/07/15 06:10:24;;;;;;;3.83;1.23;;;13.10;99.90;;;;;;5078018;28;20203;-85
2021/07/15 06:12:50;;;;;;;1.50;1.30;;;13.10;99.90;;;;;;5078292;28;20177;-85
2021/07/15 06:15:17;;;;;;;1.87;1.67;;;13.20;99.90;;;;;;5079237;28;20177;-85
2021/07/15 06:17:43;;;;;;;1.50;1.37;;;13.30;99.90;;;;;;5079293;28;20267;-85
2021/07/15 06:20:13;;;;;;;2.87;1.80;;;13.30;99.90;;;;;;5082802;28;20259;-85
2021/07/15 06:22:41;;;;;;;1.93;1.60;;;13.40;99.90;;;;;;5075286;28;20177;-85
2021/07/15 06:25:08;;;;;;;1.83;1.50;;;13.50;99.90;;;;;;5076841;28;20191;-85
2021/07/15 06:27:33;;;;;;;2.10;1.50;;;13.40;99.90;;;;;;5075204;28;20187;-85
2021/07/15 06:29:59;;;;;;;2.23;1.80;;;13.40;99.90;;;;;;5075450;28;20176;-85
2021/07/15 06:32:25;;;;;;;3.43;2.07;;;13.30;99.90;;;;;;5090499;28;20176;-85
2021/07/15 06:34:50;;;;;;;2.20;1.63;;;13.30;99.90;;;;;;5079379;28;20187;-85
2021/07/15 06:37:16;;;;;;;4.03;1.73;;;13.30;99.90;;;;;;5079477;28;20189;-85
2021/07/15 06:39:42;;;;;;;0.90;0.83;;;13.30;99.90;;;;;;5079618;28;20204;-85
2021/07/15 06:42:08;;;;;;;1.90;1.10;;;13.20;99.90;;;;;;5080168;28;20666;-85
2021/07/15 06:44:34;;;;;;;1.23;1.13;;;13.20;99.90;;;;;;5079867;28;20267;-85
2021/07/15 06:46:59;;;;;;;0.87;0.87;;;13.30;99.90;;;;;;5079315;28;20181;-84
2021/07/15 06:49:26;;;;;;;1.20;0.77;;;13.40;99.90;;;;;;5080058;28;20177;-84
2021/07/15 06:51:54;;;;;;;1.03;0.80;;;13.40;99.90;;;;;;5079532;28;20678;-84
2021/07/15 06:54:20;;;;;;;1.37;0.93;;;13.40;99.90;;;;;;5079408;28;20177;-85
2021/07/15 06:56:45;;;;;;;1.57;1.00;;;13.40;99.90;;;;;;5079927;28;20183;-85
2021/07/15 06:59:11;;;;;;;2.40;1.27;;;13.40;99.90;;;;;;5081533;28;20204;-85
2021/07/15 07:01:36;;;;;;;1.10;1.00;;;13.30;99.90;;;;;;5078522;28;20192;-85
2021/07/15 07:04:02;;;;;;;1.67;0.97;;;13.30;99.90;;;;;;5080916;28;20229;-85
2021/07/15 07:06:28;;;;;;;0.80;0.80;;;13.20;99.90;;;;;;5081411;28;20555;-85
2021/07/15 07:08:53;;;;;;;1.53;0.90;;;13.20;99.90;;;;;;5079481;28;20173;-85
2021/07/15 07:11:19;;;;;;;2.40;1.03;;;13.30;99.90;;;;;;5080572;28;20196;-85
2021/07/15 07:13:45;;;;;;;0.70;0.60;;;13.30;99.90;;;;;;5081106;28;20187;-84
2021/07/15 07:16:10;;;;;;;1.40;0.83;;;13.30;99.90;;;;;;5082161;28;20204;-85
2021/07/15 07:18:36;;;;;;;0.60;0.60;;;13.20;99.90;;;;;;5080289;28;20226;-85
2021/07/15 07:21:02;;;;;;;1.07;0.73;;;13.10;99.90;;;;;;5081200;28;20555;-84
2021/07/15 07:23:28;;;;;;;1.00;0.70;;;13.10;99.90;;;;;;5081454;28;20207;-84
2021/07/15 07:25:53;;;;;;;4.97;0.80;;;13.20;99.90;;;;;;5081315;28;20538;-85
2021/07/15 07:28:19;;;;;;;2.50;0.70;;;13.10;99.90;;;;;;5083044;28;20629;-85
2021/07/15 07:30:44;;;;;;;1.43;0.87;;;13.00;99.90;;;;;;5080563;28;20212;-85
2021/07/15 07:33:10;;;;;;;3.50;1.30;;;13.10;99.90;;;;;;5080981;28;20183;-85
2021/07/15 07:35:36;;;;;;;4.30;1.83;;;13.10;99.90;;;;;;5081926;28;20181;-85
2021/07/15 07:38:02;;;;;;;7.30;2.90;;;13.00;99.90;;;;;;5080147;28;20176;-85
2021/07/15 07:40:28;;;;;;;4.87;2.43;;;13.10;99.90;;;;;;5080423;28;20216;-85
2021/07/15 07:42:54;;;;;;;1.30;1.20;;;13.10;99.90;;;;;;5081993;28;20176;-85
2021/07/15 07:45:20;;;;;;;0.90;0.80;;;13.20;99.90;;;;;;5081662;28;20176;-85
2021/07/15 07:47:46;;;;;;;2.50;1.00;;;13.20;99.90;;;;;;5080779;28;20177;-85
2021/07/15 07:50:13;;;;;;;0.70;0.70;;;13.30;99.90;;;;;;5081892;28;20731;-85
2021/07/15 07:52:39;;;;;;;0.93;0.80;;;13.30;99.90;;;;;;5080741;28;20177;-84
2021/07/15 07:55:07;;;;;;;1.30;0.70;;;13.40;99.90;;;;;;5081046;28;20177;-84
2021/07/15 07:57:33;;;;;;;0.70;0.50;;;13.50;99.90;;;;;;5080659;28;20665;-85
2021/07/15 08:00:00;;;;;;;1.33;0.60;;;13.60;99.90;;;;;;5080398;28;20193;-85
2021/07/15 08:02:26;;;;;;;1.13;0.50;;;13.60;99.90;;;;;;5081668;28;20888;-85
2021/07/15 08:04:52;;;;;;;0.93;0.77;;;13.60;99.90;;;;;;5080815;28;20226;-85
2021/07/15 08:07:17;;;;;;;0.63;0.63;;;13.60;99.90;;;;;;5080272;28;20272;-85
2021/07/15 08:09:46;;;;;;;0.70;0.50;;;13.70;99.90;;;;;;5081801;28;20207;-85
2021/07/15 08:12:16;;;;;;;1.00;0.53;;;13.70;99.90;;;;;;5075062;28;20203;-85
2021/07/15 08:14:43;;;;;;;1.77;0.70;;;13.60;99.90;;;;;;5076839;28;20186;-85
2021/07/15 08:17:08;;;;;;;0.70;0.50;;;13.60;99.90;;;;;;5079053;28;20554;-85
2021/07/15 08:19:35;;;;;;;1.30;0.50;;;13.60;99.90;;;;;;5079354;28;20224;-84
2021/07/15 08:22:01;;;;;;;3.23;0.83;;;13.70;99.90;;;;;;5079501;28;20201;-84
2021/07/15 08:24:27;;;;;;;2.87;0.70;;;13.70;99.90;;;;;;5081031;28;20197;-84
2021/07/15 08:26:53;;;;;;;1.03;0.70;;;13.80;99.90;;;;;;5080951;28;20193;-84
2021/07/15 08:29:18;;;;;;;4.57;1.53;;;13.80;99.90;;;;;;5084959;28;20326;-84
2021/07/15 08:31:45;;;;;;;1.57;0.70;;;13.80;99.90;;;;;;5081610;28;20193;-84
2021/07/15 08:34:11;;;;;;;5.23;0.80;;;13.70;99.90;;;;;;5080410;28;20186;-84
2021/07/15 08:36:38;;;;;;;2.10;0.60;;;13.70;99.90;;;;;;5080515;28;20545;-84
2021/07/15 08:39:04;;;;;;;0.90;0.80;;;13.80;99.90;;;;;;5077192;28;20734;-84
2021/07/15 08:41:30;;;;;;;0.90;0.80;;;13.80;99.90;;;;;;5078562;28;20200;-84
2021/07/15 08:43:55;;;;;;;0.50;0.50;;;13.90;99.90;;;;;;5077891;28;20169;-84
2021/07/15 08:46:23;;;;;;;0.97;0.60;;;13.90;99.90;;;;;;5079298;28;20177;-85
2021/07/15 08:48:49;;;;;;;0.87;0.40;;;13.80;99.90;;;;;;5080846;28;20260;-85
2021/07/15 08:51:15;;;;;;;1.63;0.50;;;13.80;99.90;;;;;;5079659;28;20671;-85
2021/07/15 08:53:44;;;;;;;1.33;0.60;;;13.80;99.90;;;;;;5080138;28;20250;-85
2021/07/15 08:58:57;;;;;;;0.73;0.70;;;13.90;99.90;;;;;;5079086;28;20179;-84
2021/07/15 09:01:23;;;;;;;1.13;0.60;;;13.90;99.90;;;;;;5090530;28;20258;-85
2021/07/15 09:03:49;;;;;;;0.50;0.50;;;13.90;99.90;;;;;;5077812;28;20172;-84
2021/07/15 09:06:15;;;;;;;0.93;0.60;;;13.90;99.90;;;;;;5077754;28;20673;-84
2021/07/15 09:08:40;;;;;;;0.70;0.60;;;13.90;99.90;;;;;;5076875;28;20181;-84
2021/07/15 09:11:06;;;;;;;1.30;0.60;;;14.00;99.90;;;;;;5076532;28;20299;-85
2021/07/15 09:13:32;;;;;;;1.17;0.60;;;14.00;99.90;;;;;;5083568;28;20185;-84
2021/07/15 09:15:58;;;;;;;0.90;0.70;;;14.20;99.90;;;;;;5096396;28;20188;-84
2021/07/15 09:18:23;;;;;;;1.53;0.67;;;14.30;99.90;;;;;;5101508;28;20233;-86
2021/07/15 09:20:49;;;;;;;0.60;0.50;;;14.40;99.90;;;;;;5096083;28;21058;-85
2021/07/15 09:23:16;;;;;;;0.50;0.50;;;14.30;99.90;;;;;;5081125;28;20181;-85
2021/07/15 09:25:42;;;;;;;0.60;0.50;;;14.20;99.90;;;;;;5081445;28;20575;-85
2021/07/15 09:28:10;;;;;;;0.40;0.40;;;14.10;99.90;;;;;;5082039;28;20239;-85
2021/07/15 09:30:37;;;;;;;0.63;0.40;;;14.10;99.90;;;;;;5083174;28;20197;-85
2021/07/15 09:33:14;;;;;;;1.00;0.60;;;14.30;99.90;;;;;;5081000;28;20181;-85
2021/07/15 09:35:45;;;;;;;2.00;0.50;;;14.30;99.90;;;;;;5082535;28;20307;-85
2021/07/15 09:38:15;;;;;;;0.50;0.50;;;14.40;99.90;;;;;;5081683;28;20176;-85
2021/07/15 09:40:44;;;;;;;3.77;0.73;;;14.30;99.90;;;;;;5080111;28;20211;-85
2021/07/15 09:43:20;;;;;;;0.77;0.47;;;14.40;99.90;;;;;;5081828;28;20238;-85
2021/07/15 09:45:49;;;;;;;0.50;0.50;;;14.50;99.90;;;;;;5080487;28;20204;-85
2021/07/15 09:48:18;;;;;;;0.80;0.50;;;14.60;99.90;;;;;;5079554;28;20661;-86
2021/07/15 09:50:44;;;;;;;0.60;0.60;;;14.60;99.90;;;;;;5079111;28;20213;-85
2021/07/15 09:53:28;;;;;;;0.63;0.50;;;14.70;99.90;;;;;;5079490;28;20180;-85
2021/07/15 09:55:58;;;;;;;0.63;0.47;;;14.70;99.90;;;;;;5080452;28;20248;-85
2021/07/15 09:58:24;;;;;;;2.17;0.60;;;14.70;99.90;;;;;;5079142;28;20188;-85
2021/07/15 10:00:50;;;;;;;1.33;0.70;;;14.90;99.90;;;;;;5079551;28;20209;-85
2021/07/15 10:03:17;;;;;;;0.90;0.50;;;15.20;99.90;;;;;;5081445;28;20192;-85
2021/07/15 10:05:53;;;;;;;0.50;0.50;;;15.30;99.90;;;;;;5081568;28;20176;-85
2021/07/15 10:08:25;;;;;;;0.80;0.50;;;15.20;99.90;;;;;;5079888;28;20176;-85
2021/07/15 10:10:51;;;;;;;1.20;0.90;;;15.30;99.90;;;;;;5081870;28;20224;-85
2021/07/15 10:13:20;;;;;;;0.60;0.60;;;15.20;99.90;;;;;;5081289;28;20263;-85
2021/07/15 10:15:47;;;;;;;0.60;0.60;;;15.10;99.90;;;;;;5080431;28;20181;-85
2021/07/15 10:18:13;;;;;;;0.63;0.60;;;15.00;99.90;;;;;;5079598;28;20193;-85
2021/07/15 10:20:54;;;;;;;0.40;0.40;;;15.00;99.90;;;;;;5078944;28;20579;-85
2021/07/15 10:23:49;;;;;;;0.90;0.70;;;14.90;99.90;;;;;;5077652;28;20165;-85
2021/07/15 10:26:15;;;;;;;0.90;0.60;;;14.90;99.90;;;;;;5075329;28;20546;-85
2021/07/15 10:28:47;;;;;;;0.57;0.57;;;14.90;99.90;;;;;;5078946;28;20256;-85
2021/07/15 10:31:14;;;;;;;0.80;0.70;;;14.90;99.90;;;;;;5081325;28;20275;-85
2021/07/15 10:33:44;;;;;;;3.30;1.60;;;14.80;99.90;;;;;;5082132;28;20180;-86
2021/07/15 10:36:10;;;;;;;2.03;1.43;;;14.70;99.90;;;;;;5079705;28;20194;-86
2021/07/15 10:38:43;;;;;;;2.83;1.10;;;14.70;99.90;;;;;;5084864;28;20181;-85
2021/07/15 10:41:10;;;;;;;2.73;1.43;;;14.60;99.90;;;;;;5079846;28;20289;-85
2021/07/15 10:43:37;;;;;;;2.73;1.10;;;14.60;99.90;;;;;;5080386;28;20187;-85
2021/07/15 10:46:05;;;;;;;2.00;1.00;;;14.50;99.90;;;;;;5081318;28;20355;-85
2021/07/15 10:48:34;;;;;;;2.47;1.00;;;14.50;99.90;;;;;;5082001;28;20184;-85
2021/07/15 10:51:00;;;;;;;4.73;1.50;;;14.60;99.90;;;;;;5081524;28;20263;-85
2021/07/15 10:53:32;;;;;;;4.00;1.40;;;14.60;99.90;;;;;;5080642;28;20181;-86
2021/07/15 10:55:58;;;;;;;2.13;1.07;;;14.70;99.90;;;;;;5081072;28;20169;-86
2021/07/15 10:58:43;;;;;;;1.27;0.77;;;14.70;99.90;;;;;;5080225;28;20248;-85
2021/07/15 11:01:11;;;;;;;1.40;0.80;;;14.70;99.90;;;;;;5080663;28;20213;-85
2021/07/15 11:03:37;;;;;;;1.53;0.70;;;14.70;99.90;;;;;;5081039;28;20177;-85
2021/07/15 11:06:03;;;;;;;0.70;0.60;;;14.80;99.90;;;;;;5083046;28;20180;-85
2021/07/15 11:08:44;;;;;;;1.00;0.60;;;14.90;99.90;;;;;;5082612;28;20177;-85
2021/07/15 11:11:11;;;;;;;1.53;0.70;;;15.00;99.90;;;;;;5080815;28;20338;-85
2021/07/15 11:13:37;;;;;;;1.37;0.80;;;15.00;99.90;;;;;;5079335;28;20526;-85
2021/07/15 11:16:07;;;;;;;0.93;0.70;;;15.00;99.90;;;;;;5079337;28;20241;-85
2021/07/15 11:18:45;;;;;;;0.77;0.70;;;15.10;99.90;;;;;;5076375;28;20536;-85
2021/07/15 11:21:27;;;;;;;0.90;0.60;;;15.20;99.90;;;;;;5075782;28;20649;-86
2021/07/15 11:23:54;;;;;;;1.20;0.90;;;15.10;99.90;;;;;;5075523;28;20183;-85
2021/07/15 11:26:34;;;;;;;1.83;1.20;;;15.10;99.90;;;;;;5077660;28;20168;-85
2021/07/15 11:29:00;;;;;;;2.00;1.50;;;15.30;99.90;;;;;;5086563;28;20192;-85
2021/07/15 11:31:48;;;;;;;2.40;1.40;;;15.30;99.90;;;;;;5081343;28;20200;-85
2021/07/15 11:34:36;;;;;;;2.30;1.50;;;15.30;99.90;;;;;;5080063;28;20169;-85
2021/07/15 11:37:26;;;;;;;1.40;1.30;;;15.30;99.90;;;;;;5080456;28;20207;-85
2021/07/15 11:39:56;;;;;;;0.80;0.80;;;15.40;99.90;;;;;;5079554;28;20197;-85
2021/07/15 11:42:23;;;;;;;1.00;0.90;;;15.50;99.90;;;;;;5077394;28;20215;-86
2021/07/15 11:45:10;;;;;;;1.80;0.70;;;15.50;99.90;;;;;;5077489;28;20173;-85
2021/07/15 11:47:56;;;;;;;1.47;0.60;;;15.60;99.90;;;;;;5079518;28;20189;-85
2021/07/15 11:50:28;;;;;;;0.80;0.80;;;15.80;99.90;;;;;;5078680;28;20612;-85
2021/07/15 11:53:12;;;;;;;3.07;0.60;;;15.80;99.90;;;;;;5078658;28;20168;-85
2021/07/15 11:55:38;;;;;;;2.10;0.80;;;16.00;99.90;;;;;;5077621;28;20181;-84
2021/07/15 11:58:04;;;;;;;0.50;0.50;;;16.30;99.90;;;;;;5076278;28;20233;-84
2021/07/15 12:00:29;;;;;;;2.73;0.60;;;16.50;99.90;;;;;;5075831;28;20291;-85
2021/07/15 12:02:57;;;;;;;0.70;0.70;;;16.60;99.90;;;;;;5081855;28;20180;-84
2021/07/15 12:05:31;;;;;;;0.40;0.40;;;16.90;99.90;;;;;;5093999;28;20344;-82
2021/07/15 12:08:13;;;;;;;0.60;0.60;;;17.10;99.90;;;;;;5097658;28;20227;-83
2021/07/15 12:10:47;;;;;;;0.70;0.60;;;17.20;99.90;;;;;;5083064;28;20246;-86
2021/07/15 12:13:16;;;;;;;0.73;0.57;;;17.10;99.90;;;;;;5083005;28;20169;-84
2021/07/15 12:15:44;;;;;;;3.23;0.50;;;16.90;99.90;;;;;;5083399;28;20172;-85
2021/07/15 12:18:17;;;;;;;2.20;0.87;;;16.80;99.90;;;;;;5082569;28;20194;-83
2021/07/15 12:20:46;;;;;;;1.10;0.50;;;17.00;99.90;;;;;;5084042;28;20208;-84
2021/07/15 12:23:37;;;;;;;1.10;0.60;;;17.80;99.90;;;;;;5087679;28;20169;-83
2021/07/15 12:26:05;;;;;;;0.50;0.50;;;18.20;99.90;;;;;;5086444;28;20206;-84
2021/07/15 12:28:31;;;;;;;0.50;0.50;;;18.20;99.90;;;;;;5086261;28;20218;-84
2021/07/15 12:31:02;;;;;;;0.63;0.50;;;17.90;99.90;;;;;;5086058;28;20197;-84
2021/07/15 12:33:48;;;;;;;0.80;0.70;;;17.50;99.90;;;;;;5087066;28;20200;-84
2021/07/15 12:36:20;;;;;;;0.67;0.60;;;17.40;99.90;;;;;;5085109;28;20166;-84
2021/07/15 12:38:48;;;;;;;0.50;0.50;;;17.40;99.90;;;;;;5086816;28;20249;-85
2021/07/15 12:41:15;;;;;;;0.73;0.60;;;17.30;99.90;;;;;;5088379;28;20213;-85
2021/07/15 12:43:49;;;;;;;1.33;0.70;;;17.10;99.90;;;;;;5090276;28;20176;-85
2021/07/15 12:46:26;;;;;;;0.80;0.60;;;17.00;99.90;;;;;;5093052;28;20169;-85
2021/07/15 12:48:54;;;;;;;0.60;0.60;;;16.90;99.90;;;;;;5088508;28;20179;-84
2021/07/15 12:51:26;;;;;;;0.90;0.50;;;16.80;99.90;;;;;;5087504;28;20678;-84
2021/07/15 12:53:53;;;;;;;0.53;0.50;;;16.80;99.90;;;;;;5087792;28;20166;-85
2021/07/15 12:56:24;;;;;;;0.50;0.50;;;17.00;99.90;;;;;;5088521;28;20260;-84
2021/07/15 12:59:01;;;;;;;0.50;0.50;;;17.20;99.90;;;;;;5086983;28;20509;-84
2021/07/15 13:01:27;;;;;;;1.10;0.50;;;17.30;99.90;;;;;;5087369;28;20272;-85